Time;durP1;ratioP1;P1;durP2;ratioP2;P2;SDS_P1;SDS_P2;PMS_P1;PMS_P2;Temp;Humidity;BMP_temperature;BMP_pressure;BME280_temperature;BME280_humidity;BME280_pressure;Samples;Min_cycle;Max_cycle;Signal;HPM_P1;HPM_P2
2022/02/19 00:00:24;;;;;;;1.40;0.88;;;4.70;99.90;;;;;;21079320;28;20093;-50
2022/02/19 00:10:26;;;;;;;0.45;0.20;;;5.00;99.90;;;;;;21078497;28;20028;-48
2022/02/19 00:20:32;;;;;;;0.28;0.20;;;5.00;99.90;;;;;;21077949;28;20086;-49
2022/02/19 00:30:34;;;;;;;0.35;0.10;;;5.40;99.90;;;;;;21077071;28;20113;-47
2022/02/19 00:40:37;;;;;;;0.43;0.20;;;5.50;99.90;;;;;;21076273;28;20036;-47
2022/02/19 00:50:39;;;;;;;0.57;0.25;;;5.70;99.90;;;;;;21073993;28;20074;-49
2022/02/19 01:00:41;;;;;;;0.13;0.13;;;5.70;99.90;;;;;;21074716;28;20902;-47
2022/02/19 01:10:53;;;;;;;3.55;0.40;;;5.70;99.90;;;;;;21056970;28;20440;-48
2022/02/19 01:20:57;;;;;;;1.85;0.50;;;5.40;99.90;;;;;;21073195;28;20040;-47
2022/02/19 01:31:00;;;;;;;1.75;0.75;;;5.30;99.90;;;;;;21072289;28;20066;-50
2022/02/19 01:41:03;;;;;;;1.48;0.80;;;5.50;99.90;;;;;;21054584;28;20028;-48
2022/02/19 01:51:08;;;;;;;2.92;1.00;;;5.40;99.90;;;;;;21053697;28;20105;-47
2022/02/19 02:01:11;;;;;;;3.08;1.20;;;5.60;99.90;;;;;;21070791;28;20459;-50
2022/02/19 02:11:33;;;;;;;2.38;1.38;;;5.60;99.90;;;;;;21069825;28;20449;-48
2022/02/19 02:21:37;;;;;;;6.30;3.20;;;5.30;99.90;;;;;;21068921;28;20040;-48
2022/02/19 02:31:40;;;;;;;2.05;1.00;;;5.00;99.90;;;;;;21034464;28;20490;-48
2022/02/19 02:41:48;;;;;;;2.08;1.00;;;5.10;99.90;;;;;;21050554;28;20177;-49
2022/02/19 02:51:51;;;;;;;2.33;1.15;;;5.10;99.90;;;;;;21050518;28;20048;-50
2022/02/19 03:01:53;;;;;;;3.10;1.52;;;5.10;99.90;;;;;;21066462;28;20093;-47
2022/02/19 03:11:56;;;;;;;1.85;0.93;;;4.90;99.90;;;;;;21065736;28;20364;-47
2022/02/19 03:22:01;;;;;;;1.58;0.70;;;5.00;99.90;;;;;;21081451;28;20085;-49
2022/02/19 03:32:08;;;;;;;1.80;0.50;;;4.90;99.90;;;;;;21065929;28;20546;-48
2022/02/19 03:42:11;;;;;;;1.33;0.20;;;4.70;99.90;;;;;;21081236;28;20033;-47
2022/02/19 03:52:14;;;;;;;0.40;0.30;;;4.70;99.90;;;;;;21080017;28;20415;-46
2022/02/19 04:02:18;;;;;;;0.60;0.28;;;4.50;99.90;;;;;;21062747;28;20039;-50
2022/02/19 04:12:22;;;;;;;0.32;0.20;;;4.50;99.90;;;;;;21078773;28;20081;-47
2022/02/19 04:22:30;;;;;;;0.55;0.38;;;4.50;99.90;;;;;;20985057;28;20076;-47
2022/02/19 04:32:33;;;;;;;1.38;0.57;;;4.60;99.90;;;;;;20967752;28;20036;-49
2022/02/19 04:42:37;;;;;;;6.57;1.75;;;4.50;99.90;;;;;;20967204;28;20487;-46
2022/02/19 04:52:52;;;;;;;1.70;0.60;;;4.40;99.90;;;;;;20966377;28;20500;-47
2022/02/19 05:02:56;;;;;;;3.35;1.23;;;4.30;99.90;;;;;;21016022;28;20101;-47
2022/02/19 05:12:59;;;;;;;191.10;10.00;;;4.40;99.90;;;;;;21057249;28;20556;-47
2022/02/19 05:23:04;;;;;;;2.55;1.20;;;4.30;99.90;;;;;;21072982;28;20109;-47
2022/02/19 05:33:08;;;;;;;2.17;1.00;;;4.30;99.90;;;;;;21072386;28;20487;-47
2022/02/19 05:43:11;;;;;;;323.55;18.00;;;4.40;99.90;;;;;;21070457;28;20548;-48
2022/02/19 05:53:18;;;;;;;0.75;0.40;;;4.20;99.90;;;;;;21054097;28;20414;-47
2022/02/19 06:03:24;;;;;;;179.95;10.65;;;4.10;99.90;;;;;;21069660;28;20160;-46
2022/02/19 06:13:28;;;;;;;1.23;0.80;;;4.10;99.90;;;;;;21069043;28;20089;-46
2022/02/19 06:23:31;;;;;;;4.82;1.88;;;4.00;99.90;;;;;;21069757;28;20036;-47
2022/02/19 06:33:35;;;;;;;4.72;2.30;;;4.10;99.90;;;;;;21051035;28;20024;-46
2022/02/19 06:43:42;;;;;;;4.43;2.30;;;4.20;99.90;;;;;;21067107;28;20120;-48
2022/02/19 06:53:45;;;;;;;2.08;1.42;;;4.20;99.90;;;;;;21066425;28;20097;-48
2022/02/19 07:03:50;;;;;;;4.50;1.75;;;4.30;99.90;;;;;;21066147;28;20074;-46
2022/02/19 07:14:12;;;;;;;4.38;1.10;;;4.30;99.90;;;;;;21049209;28;20032;-46
2022/02/19 07:24:16;;;;;;;1.23;0.63;;;4.60;99.90;;;;;;21065343;28;20449;-46
2022/02/19 07:34:20;;;;;;;2.17;0.73;;;4.80;99.90;;;;;;21066220;28;20398;-46
2022/02/19 07:44:23;;;;;;;2.00;1.15;;;4.80;99.90;;;;;;21064756;28;20093;-48
2022/02/19 08:05:14;;;;;;;3.38;1.95;;;4.90;99.90;;;;;;21074024;28;20059;-46
2022/02/19 08:15:23;;;;;;;6.00;3.40;;;4.80;99.90;;;;;;21061772;28;20032;-48
2022/02/19 08:25:26;;;;;;;5.53;2.70;;;4.90;99.90;;;;;;21077769;28;20032;-49
2022/02/19 08:35:30;;;;;;;5.97;3.60;;;5.20;99.90;;;;;;21076910;28;20461;-47
2022/02/19 08:45:33;;;;;;;13.38;6.72;;;5.50;99.90;;;;;;21076041;28;20089;-46
2022/02/19 08:55:36;;;;;;;7.95;5.35;;;6.10;99.90;;;;;;21075259;28;20119;-46
2022/02/19 09:05:39;;;;;;;5.95;3.08;;;6.90;99.90;;;;;;21074734;28;20044;-46
2022/02/19 09:15:42;;;;;;;2.85;1.73;;;7.30;99.90;;;;;;21072876;28;20040;-48
2022/02/19 09:25:45;;;;;;;8.40;4.70;;;8.10;99.90;;;;;;21072727;28;20410;-47
2022/02/19 09:35:48;;;;;;;3.92;2.15;;;8.70;99.90;;;;;;21072044;28;20066;-48
2022/02/19 09:45:51;;;;;;;4.95;2.63;;;10.80;99.90;;;;;;21070887;28;20036;-46
2022/02/19 09:55:55;;;;;;;4.15;2.40;;;11.70;99.90;;;;;;21068589;28;20575;-49
2022/02/19 10:06:09;;;;;;;1.63;0.95;;;11.10;99.90;;;;;;21070179;28;20040;-51
2022/02/19 10:16:12;;;;;;;8.35;5.47;;;10.30;99.90;;;;;;21068758;28;20032;-46
2022/02/19 10:26:17;;;;;;;6.95;4.72;;;9.90;99.90;;;;;;21067784;28;20437;-47
2022/02/19 10:36:21;;;;;;;6.90;4.07;;;10.70;99.90;;;;;;21067428;28;20036;-47
2022/02/19 10:46:27;;;;;;;16.45;9.40;;;10.40;99.90;;;;;;21066605;28;20086;-46
2022/02/19 10:56:35;;;;;;;16.10;9.48;;;9.90;99.90;;;;;;21066946;28;20106;-47
2022/02/19 11:06:38;;;;;;;12.77;7.55;;;9.40;99.90;;;;;;21065794;28;20183;-48
2022/02/19 11:16:41;;;;;;;19.75;10.95;;;10.30;99.90;;;;;;21065569;28;20391;-49
2022/02/19 11:26:46;;;;;;;19.48;10.75;;;10.90;99.90;;;;;;21064945;28;20040;-47
2022/02/19 11:36:51;;;;;;;25.88;14.25;;;11.70;99.90;;;;;;21070410;28;20057;-47
2022/02/19 11:46:56;;;;;;;20.63;10.73;;;10.80;99.90;;;;;;21081189;28;20089;-47
2022/02/19 11:57:16;;;;;;;14.63;8.68;;;10.30;99.90;;;;;;21079854;28;20129;-47
2022/02/19 12:07:18;;;;;;;23.17;14.60;;;11.00;99.90;;;;;;21078891;28;20040;-48
2022/02/19 12:17:22;;;;;;;24.23;11.43;;;11.20;99.90;;;;;;21078406;28;20040;-47
2022/02/19 12:27:25;;;;;;;22.70;13.05;;;9.40;99.90;;;;;;21077949;28;20039;-47
2022/02/19 12:37:33;;;;;;;21.35;12.02;;;9.50;99.90;;;;;;21077010;28;20541;-50
2022/02/19 12:47:39;;;;;;;23.57;12.00;;;9.60;99.90;;;;;;21075716;28;20097;-48
2022/02/19 12:57:41;;;;;;;25.73;13.35;;;9.50;99.90;;;;;;21075309;28;20450;-47
2022/02/19 13:07:44;;;;;;;22.15;11.25;;;10.00;99.90;;;;;;21074557;28;20105;-48
2022/02/19 13:17:52;;;;;;;21.77;12.50;;;9.90;99.90;;;;;;21073784;28;20109;-48
2022/02/19 13:27:56;;;;;;;25.42;14.45;;;9.50;99.90;;;;;;21072851;28;20168;-48
2022/02/19 13:38:00;;;;;;;19.73;10.18;;;9.30;99.90;;;;;;21071676;28;20195;-48
2022/02/19 13:48:05;;;;;;;24.48;13.50;;;9.40;99.90;;;;;;21070850;28;20093;-51
2022/02/19 13:58:16;;;;;;;22.70;12.77;;;9.90;99.90;;;;;;21070389;28;20044;-48
2022/02/19 14:08:32;;;;;;;23.57;13.10;;;9.30;99.90;;;;;;21069667;28;20109;-51
2022/02/19 14:18:35;;;;;;;34.90;18.05;;;9.40;99.90;;;;;;21068302;28;20055;-48
2022/02/19 14:28:38;;;;;;;22.05;12.30;;;9.20;99.90;;;;;;21039365;28;20513;-51
2022/02/19 14:38:40;;;;;;;41.78;25.95;;;8.70;99.90;;;;;;21068974;28;20043;-49
2022/02/19 14:48:43;;;;;;;32.75;19.65;;;8.70;99.90;;;;;;21067225;28;20048;-49
2022/02/19 14:58:47;;;;;;;194.88;31.42;;;7.80;99.90;;;;;;21066737;28;20036;-48
2022/02/19 15:08:50;;;;;;;65.65;26.98;;;7.20;99.90;;;;;;21066615;28;20236;-49
2022/02/19 15:18:53;;;;;;;108.85;29.83;;;6.70;99.90;;;;;;21083615;28;20069;-48
2022/02/19 15:28:56;;;;;;;889.22;67.75;;;6.30;99.90;;;;;;21082113;28;20089;-48
2022/02/19 15:38:58;;;;;;;695.80;61.00;;;6.10;99.90;;;;;;21081617;28;20044;-48
2022/02/19 15:49:01;;;;;;;309.95;40.35;;;5.70;99.90;;;;;;21081360;28;20109;-49
2022/02/19 15:59:07;;;;;;;186.90;36.40;;;5.20;99.90;;;;;;21080173;28;20070;-48
2022/02/19 16:09:10;;;;;;;175.32;34.22;;;4.80;99.90;;;;;;21078837;28;20036;-49
2022/02/19 16:19:13;;;;;;;59.63;28.73;;;4.60;99.90;;;;;;21078371;28;20440;-49
2022/02/19 16:29:15;;;;;;;60.30;30.65;;;4.40;99.90;;;;;;21078387;28;20039;-49
2022/02/19 16:39:20;;;;;;;231.82;38.90;;;4.00;99.90;;;;;;21076954;28;20036;-52
2022/02/19 16:49:23;;;;;;;254.73;44.45;;;3.80;99.90;;;;;;21075530;28;20101;-47
2022/02/19 16:59:26;;;;;;;60.95;26.60;;;3.50;99.90;;;;;;21075507;28;20101;-48
2022/02/19 17:09:29;;;;;;;176.45;36.40;;;3.20;99.90;;;;;;21074413;28;20098;-48
2022/02/19 17:19:31;;;;;;;99.72;34.70;;;3.00;99.90;;;;;;21073678;28;20074;-48
2022/02/19 17:29:35;;;;;;;49.17;23.20;;;3.10;99.90;;;;;;21072910;28;20035;-47
2022/02/19 17:39:40;;;;;;;27.58;13.45;;;3.00;99.90;;;;;;21054278;28;20044;-48
2022/02/19 17:49:43;;;;;;;33.22;15.80;;;2.80;99.90;;;;;;21070986;28;20499;-47
2022/02/19 17:59:47;;;;;;;23.42;12.05;;;2.70;99.90;;;;;;21051404;28;20032;-47
2022/02/19 18:09:50;;;;;;;23.52;11.85;;;2.70;99.90;;;;;;21070832;28;20044;-47
2022/02/19 18:19:52;;;;;;;27.90;14.07;;;2.50;99.90;;;;;;21068837;28;20039;-47
2022/02/19 18:29:55;;;;;;;29.30;14.20;;;2.60;99.90;;;;;;21068369;28;20061;-49
2022/02/19 18:39:58;;;;;;;32.78;16.92;;;2.40;99.90;;;;;;21068275;28;20036;-47
2022/02/19 18:50:02;;;;;;;19.65;10.07;;;2.30;99.90;;;;;;21067336;28;20450;-50
2022/02/19 19:00:09;;;;;;;23.58;11.00;;;2.30;99.90;;;;;;21033563;28;20097;-48
2022/02/19 19:10:12;;;;;;;32.92;14.52;;;2.20;99.90;;;;;;21066833;28;20032;-47
2022/02/19 19:20:16;;;;;;;40.55;19.85;;;2.30;99.90;;;;;;21066015;28;20054;-48
2022/02/19 19:30:19;;;;;;;35.40;16.35;;;2.50;99.90;;;;;;21065587;28;20036;-47
2022/02/19 19:40:22;;;;;;;54.50;26.08;;;2.60;99.90;;;;;;21064976;28;20040;-48
2022/02/19 19:50:24;;;;;;;62.10;27.20;;;2.80;99.90;;;;;;21064804;28;20101;-48
2022/02/19 20:00:29;;;;;;;43.70;21.17;;;2.90;99.90;;;;;;21073244;28;20078;-48
2022/02/19 20:10:32;;;;;;;41.33;19.02;;;2.90;99.90;;;;;;21079209;28;20476;-49
2022/02/19 20:20:34;;;;;;;50.53;23.55;;;2.80;99.90;;;;;;21078438;28;20035;-47
2022/02/19 20:30:37;;;;;;;42.70;19.58;;;2.70;99.90;;;;;;21077724;28;20388;-52
2022/02/19 20:40:40;;;;;;;35.28;17.58;;;2.80;99.90;;;;;;21077262;28;20445;-47
2022/02/19 20:50:43;;;;;;;35.03;15.73;;;2.80;99.90;;;;;;21067756;28;20064;-47
2022/02/19 21:00:47;;;;;;;75.85;31.30;;;2.70;99.90;;;;;;21075380;28;20085;-47
2022/02/19 21:10:52;;;;;;;45.65;20.70;;;2.80;99.90;;;;;;21076007;28;20032;-47
2022/02/19 21:20:54;;;;;;;43.55;20.85;;;2.80;99.90;;;;;;21074003;28;20036;-48
2022/02/19 21:30:57;;;;;;;53.20;24.45;;;2.80;99.90;;;;;;21073158;28;20040;-47
2022/02/19 21:40:59;;;;;;;55.92;25.98;;;2.80;99.90;;;;;;21072316;28;20404;-47
2022/02/19 21:51:02;;;;;;;40.40;19.60;;;2.80;99.90;;;;;;21071245;28;20454;-47
2022/02/19 22:01:06;;;;;;;43.45;20.23;;;2.80;99.90;;;;;;21045680;28;20035;-49
2022/02/19 22:11:09;;;;;;;43.88;19.15;;;2.70;99.90;;;;;;21070045;28;20093;-47
2022/02/19 22:21:11;;;;;;;38.63;18.10;;;2.70;99.90;;;;;;21069006;28;20074;-47
2022/02/19 22:31:14;;;;;;;37.85;17.67;;;2.70;99.90;;;;;;21068487;28;20032;-48
2022/02/19 22:41:16;;;;;;;42.83;19.00;;;2.70;99.90;;;;;;21067502;28;20028;-47
2022/02/19 22:51:19;;;;;;;48.70;22.80;;;2.60;99.90;;;;;;21067701;28;20070;-48
2022/02/19 23:01:34;;;;;;;54.47;24.13;;;2.60;99.90;;;;;;21067404;28;20101;-47
2022/02/19 23:11:37;;;;;;;45.50;18.98;;;2.50;99.90;;;;;;21066921;28;20113;-49
2022/02/19 23:21:40;;;;;;;55.47;23.85;;;2.50;99.90;;;;;;21065906;28;20036;-48
2022/02/19 23:31:45;;;;;;;49.22;21.77;;;2.40;99.90;;;;;;21052143;28;20036;-48
2022/02/19 23:41:49;;;;;;;39.25;17.58;;;2.50;99.90;;;;;;21081709;28;20058;-46
2022/02/19 23:51:51;;;;;;;46.05;21.33;;;2.40;99.90;;;;;;21080972;28;20141;-47
